Time;durP1;ratioP1;P1;durP2;ratioP2;P2;SDS_P1;SDS_P2;PMS_P1;PMS_P2;Temp;Humidity;BMP_temperature;BMP_pressure;BME280_temperature;BME280_humidity;BME280_pressure;Samples;Min_cycle;Max_cycle;Signal;HPM_P1;HPM_P2
2022/10/26 00:01:21;;;;;;;8.43;6.07;;;10.20;99.90;;;-141.84;91.08;16886.31;5013207;28;20245;-63
2022/10/26 00:03:49;;;;;;;8.47;5.80;;;10.20;99.90;;;-141.84;90.67;16876.16;5013171;28;20223;-63
2022/10/26 00:06:20;;;;;;;7.83;6.17;;;10.20;99.90;;;-141.84;90.76;16872.09;5012593;28;20740;-63
2022/10/26 00:08:48;;;;;;;6.67;5.93;;;10.20;99.90;;;-141.84;90.85;16876.16;5013184;28;20219;-64
2022/10/26 00:11:19;;;;;;;9.50;5.80;;;10.20;99.90;;;-141.84;91.19;16872.09;5012691;28;20226;-63
2022/10/26 00:13:48;;;;;;;10.77;5.73;;;10.10;99.90;;;-141.84;91.32;16823.34;5012551;28;20705;-64
2022/10/26 00:16:21;;;;;;;7.03;5.83;;;10.10;99.90;;;-141.84;91.46;16855.84;5013118;28;20265;-63
2022/10/26 00:18:50;;;;;;;6.20;5.60;;;10.00;99.90;;;-141.84;91.67;16815.22;5013128;28;20241;-64
2022/10/26 00:21:18;;;;;;;9.80;6.00;;;10.00;99.90;;;-141.84;91.90;16825.38;5012611;28;20288;-64
2022/10/26 00:23:46;;;;;;;8.83;5.67;;;10.00;99.90;;;-141.84;92.17;16799.00;5012903;28;20215;-63
2022/10/26 00:26:14;;;;;;;7.37;6.10;;;10.00;99.90;;;-141.84;91.97;16825.38;5013081;28;20211;-64
2022/10/26 00:28:44;;;;;;;7.60;6.17;;;10.00;99.90;;;-141.84;91.33;16801.03;5012827;28;20219;-64
2022/10/26 00:31:15;;;;;;;7.90;5.73;;;10.00;99.90;;;-141.84;91.22;16801.03;5012780;28;20234;-64
2022/10/26 00:33:43;;;;;;;8.03;5.40;;;10.00;99.90;;;-141.84;91.48;16786.81;5012412;28;20246;-63
2022/10/26 00:36:15;;;;;;;7.63;6.20;;;9.90;99.90;;;-141.84;91.38;16772.59;5012262;28;20639;-64
2022/10/26 00:38:47;;;;;;;7.07;6.37;;;9.90;99.90;;;-141.84;91.03;16790.88;5012716;28;20222;-63
2022/10/26 00:41:17;;;;;;;7.30;5.73;;;9.90;99.90;;;-141.84;90.98;16811.16;5012361;28;20689;-65
2022/10/26 00:43:47;;;;;;;6.27;5.67;;;9.90;99.90;;;-141.84;90.85;16841.63;5012376;28;20230;-63
2022/10/26 00:46:21;;;;;;;9.20;6.23;;;9.90;99.90;;;-141.84;90.65;16815.22;5012231;28;20222;-64
2022/10/26 00:48:55;;;;;;;9.00;6.07;;;10.00;99.90;;;-141.84;89.27;16868.03;5012569;28;20704;-63
2022/10/26 00:51:31;;;;;;;7.93;5.67;;;10.00;99.90;;;-141.84;88.65;16874.13;5012413;28;20277;-64
2022/10/26 00:54:02;;;;;;;6.90;5.43;;;10.00;99.90;;;-141.84;88.36;16884.28;5012364;28;20224;-63
2022/10/26 00:56:33;;;;;;;8.03;5.63;;;10.10;99.90;;;-141.84;88.47;16882.25;5012085;28;20741;-63
2022/10/26 00:59:08;;;;;;;7.57;6.20;;;10.10;99.90;;;-141.84;89.11;16882.25;5012229;28;20222;-63
2022/10/26 01:01:40;;;;;;;8.50;5.70;;;10.00;99.90;;;-141.84;89.91;16857.88;5012549;28;20229;-63
2022/10/26 01:04:09;;;;;;;6.40;5.70;;;10.00;99.90;;;-141.84;90.13;16845.69;5012430;28;20273;-63
2022/10/26 01:06:38;;;;;;;6.40;5.70;;;10.00;99.90;;;-141.84;90.11;16821.31;5012042;28;20233;-63
2022/10/26 01:09:07;;;;;;;7.00;5.67;;;9.90;99.90;;;-141.84;90.44;16813.19;5012251;28;20265;-63
2022/10/26 01:11:35;;;;;;;6.77;5.73;;;9.90;99.90;;;-141.84;91.11;16792.91;5012229;28;20249;-63
2022/10/26 01:14:09;;;;;;;9.20;7.83;;;9.80;99.90;;;-141.84;91.49;16776.66;5012426;28;20553;-62
2022/10/26 01:16:58;;;;;;;12.67;10.10;;;9.80;99.90;;;-141.84;91.31;16786.81;5011994;28;20226;-63
2022/10/26 01:20:25;;;;;;;10.50;9.13;;;9.80;99.90;;;-141.84;91.00;16794.94;5012043;28;20223;-62
2022/10/26 01:23:01;;;;;;;12.33;8.67;;;9.80;99.90;;;-141.84;90.66;16774.63;5011465;28;20288;-63
2022/10/26 01:26:07;;;;;;;10.73;7.73;;;9.70;99.90;;;-141.84;90.67;16766.50;5011868;28;20197;-62
2022/10/26 01:29:05;;;;;;;9.13;7.13;;;9.70;99.90;;;-141.84;90.38;16756.34;5011730;28;20218;-62
2022/10/26 01:31:44;;;;;;;8.03;6.27;;;9.70;99.90;;;-141.84;90.36;16780.72;5012014;28;20231;-62
2022/10/26 01:34:21;;;;;;;9.77;7.97;;;9.70;99.90;;;-141.84;90.04;16796.97;5012061;28;20225;-62
2022/10/26 01:36:56;;;;;;;10.53;7.97;;;9.70;99.90;;;-141.84;90.57;16746.19;5011567;28;20677;-63
2022/10/26 01:39:36;;;;;;;8.53;7.43;;;9.70;99.90;;;-141.84;91.15;16746.19;5011618;28;20686;-62
2022/10/26 01:42:09;;;;;;;9.13;6.73;;;9.60;99.90;;;-141.84;91.62;16689.31;5011494;28;20385;-62
2022/10/26 01:44:43;;;;;;;8.27;6.40;;;9.60;99.90;;;-141.84;91.48;16725.88;5011957;28;20219;-63
2022/10/26 01:47:16;;;;;;;9.17;6.33;;;9.60;99.90;;;-141.84;91.80;16729.94;5011886;28;20219;-62
2022/10/26 01:49:53;;;;;;;6.20;5.60;;;9.50;99.90;;;-141.84;91.83;16707.59;5011999;28;20222;-63
2022/10/26 01:52:22;;;;;;;8.57;5.80;;;9.50;99.90;;;-141.84;92.28;16697.44;5011260;28;20229;-63
2022/10/26 01:54:50;;;;;;;6.57;5.90;;;9.50;99.90;;;-141.84;92.32;16673.09;5011655;28;20245;-63
2022/10/26 01:57:21;;;;;;;9.23;5.67;;;9.50;99.90;;;-141.84;92.73;16638.56;5013484;28;20233;-63
2022/10/26 02:00:07;;;;;;;8.13;5.60;;;9.50;99.90;;;-141.84;92.65;16640.59;5015605;28;20229;-62
2022/10/26 02:03:09;;;;;;;8.37;5.63;;;9.50;99.90;;;-141.84;92.65;16683.22;5015310;28;20255;-64
2022/10/26 02:05:56;;;;;;;8.10;5.43;;;9.50;99.90;;;-141.84;92.52;16636.53;5015570;28;20218;-63
2022/10/26 02:08:53;;;;;;;7.53;5.40;;;9.50;99.90;;;-141.84;92.88;16648.72;5015247;28;20229;-62
2022/10/26 02:11:36;;;;;;;6.30;5.53;;;9.40;99.90;;;-141.84;92.75;16599.97;5015330;28;20222;-62
2022/10/26 02:14:21;;;;;;;6.87;6.13;;;9.50;99.90;;;-141.84;92.74;16583.72;5015629;28;20221;-63
2022/10/26 02:16:57;;;;;;;6.00;5.40;;;9.50;99.90;;;-141.84;92.64;16595.91;5015516;28;20226;-63
2022/10/26 02:19:38;;;;;;;10.07;5.80;;;9.50;99.90;;;-141.84;92.87;16559.38;5015199;28;20209;-63
2022/10/26 02:22:17;;;;;;;6.77;6.03;;;9.40;99.90;;;-141.84;93.08;16585.75;5014611;28;20712;-63
2022/10/26 02:24:47;;;;;;;6.27;5.50;;;9.40;99.90;;;-141.84;93.01;16565.47;5015153;28;20752;-64
2022/10/26 02:27:21;;;;;;;8.87;5.90;;;9.40;99.90;;;-141.84;93.04;16563.44;5014883;28;20219;-62
2022/10/26 02:29:51;;;;;;;6.83;5.57;;;9.40;99.90;;;-141.84;93.14;16565.47;5015151;28;20222;-63
2022/10/26 02:32:23;;;;;;;7.93;5.63;;;9.40;99.90;;;-141.84;93.54;16569.50;5014507;28;20219;-61
2022/10/26 02:34:56;;;;;;;7.40;5.53;;;9.30;99.90;;;-141.84;93.65;16541.09;5015205;28;20219;-63
2022/10/26 02:37:28;;;;;;;6.07;5.47;;;9.40;99.90;;;-141.84;93.47;16569.50;5014391;28;20198;-63
2022/10/26 02:40:00;;;;;;;8.67;5.90;;;9.30;99.90;;;-141.84;93.47;16581.69;5014898;28;20233;-62
2022/10/26 02:42:29;;;;;;;8.27;5.83;;;9.40;99.90;;;-141.84;93.65;16567.47;5014536;28;20238;-63
2022/10/26 02:45:06;;;;;;;6.53;5.30;;;9.40;99.90;;;-141.84;93.53;16535.00;5014821;28;20214;-63
2022/10/26 02:47:34;;;;;;;8.87;5.93;;;9.40;99.90;;;-141.84;93.70;16543.13;5014742;28;20222;-64
2022/10/26 02:50:05;;;;;;;8.80;6.23;;;9.30;99.90;;;-141.84;93.63;16522.81;5014609;28;20222;-63
2022/10/26 02:52:49;;;;;;;9.77;6.20;;;9.40;99.90;;;-141.84;93.63;16530.94;5014651;28;20567;-63
2022/10/26 02:55:25;;;;;;;7.80;6.00;;;9.40;99.90;;;-141.84;93.22;16541.09;5014563;28;20218;-63
2022/10/26 02:58:01;;;;;;;9.30;6.10;;;9.40;99.90;;;-141.84;93.30;16500.47;5014305;28;20257;-63
2022/10/26 03:00:31;;;;;;;6.47;5.70;;;9.40;99.90;;;-141.84;93.28;16522.81;5014428;28;20222;-63
2022/10/26 03:03:02;;;;;;;9.00;6.33;;;9.40;99.90;;;-141.84;93.35;16520.78;5014361;28;20245;-62
2022/10/26 03:05:33;;;;;;;8.10;6.13;;;9.30;99.90;;;-141.84;93.26;16532.97;5014416;28;20222;-62
2022/10/26 03:08:01;;;;;;;8.13;5.93;;;9.40;99.90;;;-141.84;93.23;16526.88;5013957;28;20226;-63
2022/10/26 03:10:29;;;;;;;7.73;6.13;;;9.40;99.90;;;-141.84;93.31;16522.81;5014393;28;20218;-63
2022/10/26 03:12:57;;;;;;;9.23;6.53;;;9.40;99.90;;;-141.84;93.09;16518.75;5013832;28;20235;-63
2022/10/26 03:15:25;;;;;;;7.47;5.80;;;9.40;99.90;;;-141.84;93.06;16498.44;5014312;28;20223;-64
2022/10/26 03:17:53;;;;;;;8.13;6.10;;;9.40;99.90;;;-141.84;92.89;16528.91;5014245;28;20386;-62
2022/10/26 03:20:21;;;;;;;7.70;5.93;;;9.40;99.90;;;-141.84;93.07;16530.94;5013952;28;20223;-63
2022/10/26 03:22:50;;;;;;;7.40;5.80;;;9.40;99.90;;;-141.84;93.02;16494.38;5013525;28;20439;-63
2022/10/26 03:25:18;;;;;;;8.10;6.03;;;9.40;99.90;;;-141.84;93.02;16512.66;5013803;28;20218;-63
2022/10/26 03:27:46;;;;;;;6.97;6.00;;;9.40;99.90;;;-141.84;93.18;16516.72;5013852;28;20617;-63
2022/10/26 03:30:15;;;;;;;9.23;6.97;;;9.50;99.90;;;-141.84;93.00;16510.63;5013925;28;20223;-63
2022/10/26 03:32:43;;;;;;;9.40;6.23;;;9.40;99.90;;;-141.84;92.75;16522.81;5013789;28;20234;-63
2022/10/26 03:35:11;;;;;;;10.83;6.33;;;9.40;99.90;;;-141.84;92.60;16514.69;5013847;28;20234;-62
2022/10/26 03:37:39;;;;;;;8.93;6.60;;;9.40;99.90;;;-141.84;92.92;16494.38;5013661;28;20218;-63
2022/10/26 03:40:10;;;;;;;8.70;6.97;;;9.40;99.90;;;-141.84;92.92;16496.41;5013947;28;20634;-63
2022/10/26 03:42:40;;;;;;;8.53;6.63;;;9.30;99.90;;;-141.84;92.77;16482.19;5013471;28;20215;-64
2022/10/26 03:45:10;;;;;;;7.90;6.73;;;9.30;99.90;;;-141.84;92.91;16461.91;5013522;28;20223;-63
2022/10/26 03:47:44;;;;;;;10.20;6.40;;;9.30;99.90;;;-141.84;93.01;16463.91;5013463;28;20219;-63
2022/10/26 03:50:18;;;;;;;9.97;6.90;;;9.30;99.90;;;-141.84;93.19;16455.81;5013254;28;20217;-62
2022/10/26 03:52:47;;;;;;;7.57;6.37;;;9.20;99.90;;;-141.84;93.26;16461.91;5013310;28;20686;-62
2022/10/26 03:55:18;;;;;;;9.93;6.40;;;9.20;99.90;;;-141.84;93.57;16455.81;5013433;28;20214;-62
2022/10/26 03:57:46;;;;;;;9.53;6.50;;;9.10;99.90;;;-141.84;93.39;16439.56;5013323;28;20301;-62
2022/10/26 04:00:17;;;;;;;9.27;5.97;;;9.10;99.90;;;-141.84;93.75;16419.25;5013358;28;20690;-64
2022/10/26 04:02:54;;;;;;;9.50;6.33;;;9.10;99.90;;;-141.84;93.89;16423.31;5013378;28;20690;-63
2022/10/26 04:05:22;;;;;;;10.87;6.10;;;9.10;99.90;;;-141.84;94.04;16421.28;5013171;28;20692;-63
2022/10/26 04:07:53;;;;;;;7.40;6.70;;;9.10;99.90;;;-141.84;94.13;16400.97;5012959;28;20245;-61
2022/10/26 04:10:24;;;;;;;7.70;6.90;;;9.20;99.90;;;-141.84;93.63;16437.53;5013169;28;20226;-62
2022/10/26 04:12:53;;;;;;;9.53;6.50;;;9.20;99.90;;;-141.84;93.25;16425.34;5012763;28;20244;-62
2022/10/26 04:15:22;;;;;;;9.53;6.07;;;9.30;99.90;;;-141.84;93.44;16407.06;5013111;28;20280;-62
2022/10/26 04:17:56;;;;;;;8.90;6.40;;;9.20;99.90;;;-141.84;93.50;16429.41;5013124;28;20226;-63
2022/10/26 04:20:25;;;;;;;10.93;6.40;;;9.20;99.90;;;-141.84;93.85;16396.91;5012482;28;20221;-63
2022/10/26 04:23:01;;;;;;;10.73;6.90;;;9.10;99.90;;;-141.84;93.92;16425.34;5012843;28;20222;-63
2022/10/26 04:25:33;;;;;;;7.63;6.83;;;9.10;99.90;;;-141.84;94.20;16398.94;5012718;28;20187;-62
2022/10/26 04:28:03;;;;;;;8.93;6.70;;;9.10;99.90;;;-141.84;94.33;16405.03;5012585;28;20228;-62
2022/10/26 04:30:32;;;;;;;9.40;7.10;;;9.20;99.90;;;-141.84;94.15;16378.63;5012750;28;20734;-63
2022/10/26 04:33:00;;;;;;;7.43;6.20;;;9.20;99.90;;;-141.84;94.28;16386.75;5012662;28;20240;-62
2022/10/26 04:35:28;;;;;;;7.63;6.80;;;9.10;99.90;;;-141.84;94.40;16378.63;5012643;28;20223;-63
2022/10/26 04:38:00;;;;;;;9.23;7.00;;;9.20;99.90;;;-141.84;94.71;16384.72;5011734;28;20222;-64
2022/10/26 04:40:31;;;;;;;10.33;6.20;;;9.20;99.90;;;-141.84;94.74;16340.06;5012388;28;20214;-64
2022/10/26 04:42:59;;;;;;;8.63;6.40;;;9.20;99.90;;;-141.84;94.67;16382.69;5012382;28;20288;-64
2022/10/26 04:45:29;;;;;;;10.17;6.30;;;9.30;99.90;;;-141.84;94.71;16311.63;5012652;28;20227;-63
2022/10/26 04:48:04;;;;;;;8.97;6.80;;;9.30;99.90;;;-141.84;94.69;16368.47;5012426;28;20183;-63
2022/10/26 04:50:32;;;;;;;7.63;6.30;;;9.30;99.90;;;-141.84;94.38;16354.28;5012379;28;20214;-63
2022/10/26 04:53:00;;;;;;;8.07;6.80;;;9.30;99.90;;;-141.84;93.67;16403.00;5011386;28;20237;-62
2022/10/26 04:55:29;;;;;;;7.30;6.07;;;9.50;99.90;;;-141.84;92.75;16415.19;5012073;28;20219;-63
2022/10/26 04:57:57;;;;;;;7.47;6.50;;;9.50;99.90;;;-141.84;92.77;16425.34;5012219;28;20223;-62
2022/10/26 05:00:31;;;;;;;7.27;5.70;;;9.50;99.90;;;-141.84;92.86;16407.06;5012156;28;20218;-63
2022/10/26 05:03:00;;;;;;;8.13;6.50;;;9.50;99.90;;;-141.84;93.25;16344.13;5012246;28;20218;-64
2022/10/26 05:05:28;;;;;;;6.63;5.90;;;9.50;99.90;;;-141.84;93.69;16366.47;5011915;28;20230;-63
2022/10/26 05:07:57;;;;;;;6.83;5.90;;;9.50;99.90;;;-141.84;93.55;16380.66;5012034;28;20226;-64
2022/10/26 05:10:26;;;;;;;9.17;6.53;;;9.50;99.90;;;-141.84;93.47;16384.72;5011289;28;20219;-62
2022/10/26 05:12:58;;;;;;;7.33;5.47;;;9.60;99.90;;;-141.84;93.38;16386.75;5011726;28;20222;-62
2022/10/26 05:15:26;;;;;;;6.13;5.53;;;9.60;99.90;;;-141.84;92.96;16384.72;5012045;28;20226;-62
2022/10/26 05:17:56;;;;;;;8.97;5.70;;;9.60;99.90;;;-141.84;92.61;16388.78;5012051;28;20218;-62
2022/10/26 05:20:28;;;;;;;6.40;4.77;;;9.60;99.90;;;-141.84;92.70;16384.72;5012019;28;20630;-62
2022/10/26 05:22:57;;;;;;;6.40;5.40;;;9.50;99.90;;;-141.84;93.01;16380.66;5011750;28;20690;-63
2022/10/26 05:25:25;;;;;;;9.40;5.80;;;9.50;99.90;;;-141.84;93.17;16386.75;5011068;28;20230;-61
2022/10/26 05:27:59;;;;;;;7.47;5.17;;;9.50;99.90;;;-141.84;93.19;16376.59;5011601;28;20225;-62
2022/10/26 05:30:29;;;;;;;7.83;6.10;;;9.50;99.90;;;-141.84;93.40;16327.88;5012715;28;20506;-61
2022/10/26 05:32:59;;;;;;;6.17;4.97;;;9.40;99.90;;;-141.84;93.76;16372.53;5015872;28;20199;-62
2022/10/26 05:35:27;;;;;;;5.80;5.20;;;9.40;99.90;;;-141.84;93.76;16333.97;5015707;28;20253;-63
2022/10/26 05:37:55;;;;;;;7.80;5.53;;;9.40;99.90;;;-141.84;93.95;16323.81;5015304;28;20594;-62
2022/10/26 05:40:24;;;;;;;7.53;5.10;;;9.40;99.90;;;-141.84;93.92;16362.41;5015799;28;20229;-62
2022/10/26 05:42:52;;;;;;;8.77;5.60;;;9.50;99.90;;;-141.84;93.95;16358.34;5014509;28;20701;-62
2022/10/26 05:45:21;;;;;;;6.57;5.33;;;9.50;99.90;;;-141.84;93.92;16336.00;5015607;28;20230;-62
2022/10/26 05:47:49;;;;;;;8.93;5.10;;;9.50;99.90;;;-141.84;93.90;16289.28;5015152;28;20709;-63
2022/10/26 05:50:18;;;;;;;6.37;5.50;;;9.50;99.90;;;-141.84;93.87;16344.13;5015760;28;20306;-62
2022/10/26 05:52:48;;;;;;;7.40;5.17;;;9.50;99.90;;;-141.84;93.79;16340.06;5014465;28;20214;-62
2022/10/26 05:55:18;;;;;;;7.10;5.07;;;9.60;99.90;;;-141.84;93.51;16305.53;5014287;28;20234;-62
2022/10/26 05:57:47;;;;;;;6.80;5.30;;;9.60;99.90;;;-141.84;92.63;16382.69;5014664;28;20191;-63
2022/10/26 06:00:19;;;;;;;9.27;4.80;;;9.70;99.90;;;-141.84;91.85;16405.03;5014568;28;20301;-63
2022/10/26 06:03:12;;;;;;;7.00;5.00;;;9.80;99.90;;;-141.84;91.03;16409.09;5015316;28;20230;-64
2022/10/26 06:05:52;;;;;;;6.33;5.00;;;9.90;99.90;;;-141.84;90.94;16405.03;5015242;28;20226;-61
2022/10/26 06:08:23;;;;;;;6.47;4.70;;;10.00;99.90;;;-141.84;90.46;16453.78;5015246;28;20569;-61
2022/10/26 06:10:53;;;;;;;5.63;4.57;;;10.10;99.90;;;-141.84;90.50;16484.22;5015338;28;20226;-62
2022/10/26 06:13:22;;;;;;;5.57;4.70;;;10.20;99.90;;;-141.84;90.59;16427.38;5015164;28;20720;-62
2022/10/26 06:16:14;;;;;;;6.53;4.87;;;10.20;99.90;;;-141.84;90.06;16480.16;5014076;28;20210;-62
2022/10/26 06:18:57;;;;;;;10.07;4.80;;;10.20;99.90;;;-141.84;89.15;16484.22;5015066;28;20223;-63
2022/10/26 06:21:50;;;;;;;7.10;4.20;;;10.30;99.90;;;-141.84;89.07;16508.59;5015161;28;20223;-63
2022/10/26 06:24:29;;;;;;;6.80;4.40;;;10.30;99.90;;;-141.84;89.18;16494.38;5014933;28;20698;-62
2022/10/26 06:27:08;;;;;;;5.83;4.30;;;10.30;99.90;;;-141.84;89.12;16535.00;5015089;28;20219;-62
2022/10/26 06:29:52;;;;;;;5.37;4.37;;;10.40;99.90;;;-141.84;88.99;16547.19;5014948;28;20218;-63
2022/10/26 06:32:23;;;;;;;6.90;5.00;;;10.40;99.90;;;-141.84;89.03;16530.94;5013838;28;20223;-63
2022/10/26 06:35:05;;;;;;;8.47;5.20;;;10.40;99.90;;;-141.84;87.84;16599.97;5014788;28;20218;-62
2022/10/26 06:37:37;;;;;;;7.10;4.27;;;10.50;99.90;;;-141.84;87.56;16593.88;5014650;28;20223;-63
2022/10/26 06:40:07;;;;;;;5.93;4.10;;;10.60;99.90;;;-141.84;87.03;16581.69;5014839;28;20230;-62
2022/10/26 06:42:36;;;;;;;5.70;4.40;;;10.70;99.90;;;-141.84;86.53;16636.53;5013744;28;20218;-62
2022/10/26 06:45:06;;;;;;;7.20;4.33;;;10.80;99.90;;;-141.84;85.29;16677.16;5014125;28;20207;-62
2022/10/26 06:47:45;;;;;;;6.50;4.37;;;10.80;99.90;;;-141.84;83.94;16703.53;5011229;28;20302;-61
2022/10/26 06:50:30;;;;;;;6.77;4.57;;;11.00;99.90;;;-141.84;83.94;16754.31;5014391;28;20281;-61
2022/10/26 06:53:19;;;;;;;5.87;4.63;;;11.00;99.90;;;-141.84;82.46;16790.88;5013960;28;20698;-61
2022/10/26 06:55:50;;;;;;;5.60;4.70;;;11.00;99.90;;;-141.84;82.54;16811.16;5013098;28;20227;-63
2022/10/26 06:58:21;;;;;;;4.97;4.33;;;11.00;99.90;;;-141.84;83.20;16831.47;5013814;28;20498;-62
2022/10/26 07:00:53;;;;;;;6.73;4.87;;;11.10;99.90;;;-141.84;82.94;16847.72;5013962;28;20206;-62
2022/10/26 07:03:22;;;;;;;7.57;4.93;;;11.10;99.90;;;-141.84;82.92;16859.91;5013982;28;20226;-63
2022/10/26 07:05:51;;;;;;;7.10;4.23;;;11.20;99.90;;;-141.84;82.07;16902.56;5013721;28;20257;-62
2022/10/26 07:08:19;;;;;;;7.50;5.03;;;11.20;99.90;;;-141.84;81.49;16906.63;5013704;28;20226;-63
2022/10/26 07:10:48;;;;;;;7.40;5.07;;;11.30;99.90;;;-141.84;81.71;16935.06;5013850;28;20222;-63
2022/10/26 07:13:16;;;;;;;6.47;4.70;;;11.30;99.90;;;-141.84;80.71;16965.50;5016175;28;20222;-62
2022/10/26 07:15:45;;;;;;;5.50;4.33;;;11.40;99.90;;;-141.84;80.14;16998.00;5017293;28;20682;-62
2022/10/26 07:18:13;;;;;;;6.70;3.85;;;11.40;99.90;;;-141.84;80.39;17010.19;5013416;28;20235;-62
2022/10/26 07:20:42;;;;;;;5.73;4.57;;;11.40;99.90;;;-141.84;80.16;17026.44;5013771;28;20222;-61
2022/10/26 07:23:12;;;;;;;7.17;4.40;;;11.40;99.90;;;-141.84;79.51;17071.13;5013583;28;20291;-60
2022/10/26 07:25:40;;;;;;;6.03;4.70;;;11.40;99.90;;;-141.84;79.31;17154.38;5013461;28;20241;-60
2022/10/26 07:28:10;;;;;;;5.73;4.70;;;11.50;99.90;;;-141.84;78.89;17115.81;5013257;28;20551;-60
2022/10/26 07:30:40;;;;;;;9.57;4.93;;;11.60;99.90;;;-141.84;78.85;17140.19;5013582;28;20238;-61
2022/10/26 07:33:11;;;;;;;7.30;5.00;;;11.60;99.90;;;-141.84;78.76;17180.78;5013414;28;20227;-60
2022/10/26 07:35:39;;;;;;;7.77;4.83;;;11.80;99.90;;;-141.84;77.86;17225.47;5013512;28;20222;-60
2022/10/26 07:38:08;;;;;;;7.85;4.80;;;11.90;99.90;;;-141.84;77.23;17257.97;5013325;28;20243;-60
2022/10/26 07:40:38;;;;;;;6.57;4.50;;;12.10;99.90;;;-141.84;76.74;17325.00;5013310;28;20223;-65
2022/10/26 07:43:06;;;;;;;7.00;4.33;;;12.20;99.90;;;-141.84;75.86;17359.53;5013384;28;20285;-65
2022/10/26 07:45:35;;;;;;;5.27;4.33;;;12.40;99.90;;;-141.84;73.84;17477.31;5012323;28;20627;-65
2022/10/26 07:48:03;;;;;;;5.57;3.83;;;12.70;99.90;;;-141.84;73.49;17556.53;5013005;28;20206;-61
2022/10/26 07:50:31;;;;;;;5.75;3.85;;;12.90;99.90;;;-141.84;72.99;17615.44;5013044;28;20492;-62
2022/10/26 07:52:59;;;;;;;4.57;4.00;;;13.10;99.90;;;-141.84;71.88;17708.88;5012608;28;20269;-60
2022/10/26 07:55:27;;;;;;;6.05;3.80;;;13.30;99.90;;;-141.84;71.55;17739.34;5011896;28;20285;-60
2022/10/26 07:57:57;;;;;;;6.05;3.90;;;13.40;99.90;;;-141.84;71.57;17802.31;5012887;28;20222;-60
2022/10/26 08:00:27;;;;;;;8.57;3.75;;;13.50;99.90;;;-141.84;71.48;17847.00;5012926;28;20215;-61
2022/10/26 08:02:56;;;;;;;4.38;3.08;;;13.50;99.90;;;-141.84;71.47;17836.84;5013061;28;20751;-62
2022/10/26 08:05:24;;;;;;;5.63;3.00;;;13.50;99.90;;;-141.84;71.22;17909.97;5013012;28;20231;-62
2022/10/26 08:07:52;;;;;;;5.00;3.30;;;13.60;99.90;;;-141.84;69.52;18001.41;5012845;28;20223;-61
2022/10/26 08:10:20;;;;;;;5.55;2.95;;;13.50;99.90;;;-141.84;69.43;18044.06;5012857;28;20293;-61
2022/10/26 08:12:48;;;;;;;4.78;2.90;;;13.80;99.90;;;-141.84;69.49;18082.66;5012241;28;20261;-61
2022/10/26 08:15:17;;;;;;;4.68;2.85;;;13.90;99.90;;;-141.84;68.07;18161.88;5012650;28;20219;-60
2022/10/26 08:17:45;;;;;;;5.38;2.65;;;14.00;99.90;;;-141.84;68.39;18218.75;5012669;28;20245;-60
2022/10/26 08:20:14;;;;;;;5.05;2.90;;;14.10;99.90;;;-141.84;67.33;18308.16;5012702;28;20226;-62
2022/10/26 08:22:42;;;;;;;5.25;2.70;;;14.30;99.90;;;-141.84;67.27;18328.47;5012458;28;20718;-61
2022/10/26 08:25:10;;;;;;;6.60;2.80;;;14.30;99.90;;;-141.84;67.02;18385.34;5012158;28;20702;-60
2022/10/26 08:27:38;;;;;;;5.63;2.47;;;14.40;99.90;;;-141.84;66.94;18423.94;5012642;28;20231;-61
2022/10/26 08:30:07;;;;;;;5.53;2.92;;;14.50;99.90;;;-141.84;65.33;18501.16;5012523;28;20227;-60
2022/10/26 08:32:36;;;;;;;3.72;2.30;;;14.50;99.90;;;-141.84;65.30;18606.81;5012526;28;20744;-59
2022/10/26 08:35:05;;;;;;;5.47;2.85;;;14.60;99.90;;;-141.84;64.91;18631.19;5012499;28;20227;-60
2022/10/26 08:37:33;;;;;;;5.57;2.80;;;14.70;99.90;;;-141.84;65.38;18637.28;5011236;28;20210;-61
2022/10/26 08:40:01;;;;;;;3.53;2.70;;;14.70;99.90;;;-141.84;64.80;18653.53;5012555;28;20233;-61
2022/10/26 08:42:39;;;;;;;6.05;3.03;;;14.70;99.90;;;-141.84;65.04;18700.25;5012190;28;20225;-61
2022/10/26 08:45:23;;;;;;;4.60;2.80;;;14.70;99.90;;;-141.84;64.09;18755.13;5012320;28;20218;-62
2022/10/26 08:48:06;;;;;;;8.18;2.72;;;14.90;99.90;;;-141.84;64.34;18783.56;5012121;28;20705;-60
2022/10/26 08:50:41;;;;;;;5.10;3.03;;;14.90;99.90;;;-141.84;64.01;18777.47;5012346;28;20637;-62
2022/10/26 08:53:20;;;;;;;4.13;2.47;;;14.90;99.90;;;-141.84;65.23;18747.00;5012109;28;20219;-59
2022/10/26 08:55:54;;;;;;;4.68;2.83;;;14.70;99.90;;;-141.84;65.96;18749.03;5011067;28;20273;-60
2022/10/26 08:58:30;;;;;;;3.45;2.80;;;14.70;99.90;;;-141.84;66.97;18744.97;5011696;28;20613;-61
2022/10/26 09:01:00;;;;;;;6.10;3.35;;;14.60;99.90;;;-141.84;67.35;18706.38;5011900;28;20578;-62
2022/10/26 09:03:29;;;;;;;2.90;2.47;;;14.40;99.90;;;-141.84;67.83;18671.81;5012035;28;20223;-61
2022/10/26 09:06:20;;;;;;;3.50;2.72;;;14.40;99.90;;;-141.84;67.37;18712.47;5011173;28;20661;-62
2022/10/26 09:09:01;;;;;;;3.00;2.60;;;14.50;99.90;;;-141.84;67.02;18730.75;5011930;28;20229;-61
2022/10/26 09:11:52;;;;;;;3.30;2.80;;;14.60;99.90;;;-141.84;66.56;18793.72;5011993;28;20210;-62
2022/10/26 09:14:37;;;;;;;4.32;2.60;;;14.80;99.90;;;-141.84;65.16;18814.03;5012042;28;20269;-64
2022/10/26 09:17:18;;;;;;;3.33;2.95;;;14.90;99.90;;;-141.84;64.47;18846.56;5011616;28;20226;-61
2022/10/26 09:20:17;;;;;;;4.47;3.10;;;14.90;99.90;;;-141.84;63.90;18917.66;5011803;28;20646;-61
2022/10/26 09:22:59;;;;;;;5.05;2.67;;;15.00;99.90;;;-141.84;64.18;18931.91;5010278;28;20226;-61
2022/10/26 09:25:38;;;;;;;3.28;2.97;;;15.10;99.90;;;-141.84;62.98;18984.72;4990178;28;20242;-61
2022/10/26 09:28:16;;;;;;;4.20;2.70;;;15.10;99.90;;;-141.84;63.42;19047.72;5024032;28;20778;-60
2022/10/26 09:30:46;;;;;;;3.72;3.10;;;15.30;99.90;;;-141.84;63.18;19009.09;5030508;28;20257;-61
2022/10/26 09:33:20;;;;;;;3.70;3.25;;;15.40;99.90;;;-141.84;63.59;19078.19;5030144;28;20244;-61
2022/10/26 09:35:55;;;;;;;4.68;3.35;;;15.50;99.90;;;-141.84;62.66;19106.66;5029098;28;20550;-61
2022/10/26 09:38:29;;;;;;;5.82;2.65;;;15.60;99.90;;;-141.84;62.30;19165.56;5029748;28;20727;-61
2022/10/26 09:41:05;;;;;;;4.97;3.00;;;15.80;99.90;;;-141.84;62.63;19169.63;5029215;28;20236;-61
2022/10/26 09:43:43;;;;;;;3.60;2.85;;;15.90;99.90;;;-141.84;61.87;19185.88;5027182;28;20233;-68
2022/10/26 09:46:21;;;;;;;3.67;2.70;;;15.90;99.90;;;-141.84;61.95;19248.88;5030000;28;20225;-71
2022/10/26 09:48:56;;;;;;;5.15;2.85;;;16.10;99.90;;;-141.84;61.43;19295.63;5028469;28;20677;-68
2022/10/26 09:51:26;;;;;;;4.15;2.70;;;16.20;99.90;;;-141.84;59.97;19401.28;5027686;28;20827;-67
2022/10/26 09:53:57;;;;;;;3.15;2.60;;;16.50;99.90;;;-141.84;59.65;19452.09;5029337;28;20234;-67
2022/10/26 09:56:29;;;;;;;3.15;2.83;;;16.50;99.90;;;-141.84;60.27;19403.31;5029677;28;20187;-68
2022/10/26 09:59:03;;;;;;;3.97;2.63;;;16.60;99.90;;;-141.84;59.69;19509.00;5029892;28;20218;-68
2022/10/26 10:01:34;;;;;;;3.72;2.90;;;16.60;99.90;;;-141.84;60.09;19443.97;5029746;28;20283;-66
2022/10/26 10:04:18;;;;;;;4.55;2.75;;;16.60;99.90;;;-141.84;59.61;19529.31;5029566;28;20257;-68
2022/10/26 10:06:50;;;;;;;4.45;2.60;;;16.60;99.90;;;-141.84;58.80;19563.88;5029376;28;20265;-68
2022/10/26 10:09:21;;;;;;;6.20;3.00;;;16.80;99.90;;;-141.84;59.10;19576.06;5029355;28;20636;-66
2022/10/26 10:11:56;;;;;;;5.68;2.95;;;16.90;99.90;;;-141.84;59.16;19614.66;5029698;28;20701;-68
2022/10/26 10:14:27;;;;;;;3.97;3.00;;;16.90;99.90;;;-141.84;59.58;19539.47;5029788;28;20182;-67
2022/10/26 10:17:00;;;;;;;3.35;2.47;;;16.70;99.90;;;-141.84;60.07;19594.34;5026681;28;20299;-67
2022/10/26 10:19:31;;;;;;;4.93;3.10;;;16.70;99.90;;;-141.84;60.82;19555.75;5030863;28;20218;-67
2022/10/26 10:22:08;;;;;;;5.65;2.40;;;16.60;99.90;;;-141.84;60.30;19620.78;5033582;28;20712;-68
2022/10/26 10:24:40;;;;;;;3.90;2.70;;;16.60;99.90;;;-141.84;60.71;19590.28;5033557;28;20656;-68
2022/10/26 10:27:18;;;;;;;3.35;2.30;;;16.70;99.90;;;-141.84;60.80;19561.84;5033389;28;20233;-68
2022/10/26 10:29:49;;;;;;;5.93;3.67;;;16.70;99.90;;;-141.84;60.94;19606.53;5032310;28;20605;-68
2022/10/26 10:32:20;;;;;;;5.05;2.72;;;16.60;99.90;;;-141.84;60.96;19592.31;5033648;28;20252;-68